Hlavní strana
METAR-TAF:

METAR-TAF

Letiště :

Gällivare, Švédsko

zeměpisná šířka: 67-09N, zeměpisná délka: 020-39E, výška: 359 m

Aktuální stav počasí

Zpráva byla vytvořena před 25 minutami, v 06:20 UTC
Západoseverozápadní vítr 3 kt
Teplota 2°C
Vlhkost vzduchu 100%
Tlak 1001 hPa
Viditelnost: 4000 m
Oblačno až skoro zataženo ve výšce 200 ft
Zataženo ve výšce 400 ft

METAR: ESNG 130620Z 30003KT 4000 BKN002 OVC004 02/02 Q1001

Čas: 07:45 (06:45 UTC)

Předpověď počasí

Zpráva byla vytvořena před 1 hodinou a 15 minutami, v 05:30 UTC
Předpověď platná od 13 v 06 UTC do 13 v 12 UTC
vítr z různých směrů 3 kt
Viditelnost: 5000 m
Zataženo ve výšce 200 ft
Pravděpodobnost 40%
od 13 v 06 UTC do 13 v 08 UTC
Viditelnost: 0500 m
Oblačno až skoro zataženo ve výšce 500 ft
mlha
Změna
od 13 v 08 UTC do 13 v 10 UTC
Skoro jasno ve výšce 1000 ft
Oblačno až skoro zataženo ve výšce 4000 ft

TAF: ESNG 130530Z 1306/1312 VRB03KT 5000 OVC002 PROB40 1306/1308 0500 FG BKN005 BECMG 1308/1310 FEW010 BKN040

Stav a předpovědi počasí z více než 4 000 letišť (zprávy METAR a TAF).

Červené a žluté tečky na mapě představují dostupné meteorologické stanice.

Když kurzor umístíte na tečku, zobrazí se název stanice.

Pak kliknutím zobrazíte stav a předpověď počasí.

Chcete-li změnit mapu, kliknutím na zelené tlačítko se znaménkem +mapu přiblížíte, kliknutím na zelené tlačítko se znaménkem – mapu oddálíte a kliknutím na zelené šipky přejdete na sousední mapy.


METAR-TAF: